Chibougamau, Canada
Current Conditions -  °F | °C
As of 9:00 AM on Monday 20 Oct 2014 (Local Time) from CYMT Reporting Station
Overcast Overcast  
Wind Chill: 23°   Ceiling: 2000
Heat Index: 30°   Visibility: 15mi
Dew Point: 23°   Wind: 8mph
Humidity: 75%   Direction: 310°NW
Pressure: 29.86"   Gusts: NA
Location:  49.91°N, 74.37°W
Report Text: CYMT 201300Z 31007KT 15SM BKN020 OVC035 M01/M05 A2986 RMK SC5CU3 SLP132
Loading
Personal Weather Stations






























Interactive Weather Map
Tropical Storm Tracking
New forecast layout! Learn more

10-Day Weather Forecast

Advertisements
Track Severe Weather on mobile